Terminal Aerodrome Forecast
Issued by NWS Corpus Christi, TX

Home | Current Version | Previous Version | Text Only | Print | Product List | Glossary On
Versions: 1 2 3 4 5 6 7 8 9 10 11 12 13 14 15 16 17 18
000
FTUS44 KCRP 302138 AAC
TAFCRP
TAF AMD
KCRP 302138Z 3022/0118 17014KT P6SM VCSH FEW015 SCT040 BKN140
     FM010100 15010KT P6SM FEW020 BKN120
     FM011000 15007KT P6SM VCSH SCT015
     FM011300 16014KT P6SM VCSH SCT050=

USA.gov is the U.S. government's official web portal to all federal, state and local government web resources and services.